KACV/ACV METAR and TAF weather

Enter ICAO airport designator
Station Type Date Time Source
KACV METAR 2021/05/12 01:53 UTC NOAA

KACV 120153Z AUTO 33008KT 7SM CLR 13/08 A2997 RMK AO2 SLP156 T01280078


Station Type Date Time Source
KACV Decoded METAR 2021/05/12 01:53 UTC NOAA

ARCATA/EUREKA ARCATA AIRPORT, CA, United States (KACV) 40-59N 124-06W 67M
May 11, 2021 - 09:53 PM EDT / 2021.05.12 0153 UTC
Wind: from the NNW (330 degrees) at 9 MPH (8 KT):0
Visibility: 7 mile(s):0
Sky conditions: clear
Temperature: 55.0 F (12.8 C)
Dew Point: 46.0 F (7.8 C)
Relative Humidity: 71%
Pressure (altimeter): 29.97 in. Hg (1014 hPa)
ob: KACV 120153Z AUTO 33008KT 7SM CLR 13/08 A2997 RMK AO2 SLP156 T01280078
cycle: 2

Station Type Date Time Source
KACV TAF 2021/05/11 19:59 UTC NOAA

TAF
AMD KACV 111859Z 1119/1218 30006KT 6SM BR VCFG SCT002
TEMPO 1119/1120 1/2SM FG VV002
FM112000 32010KT P6SM SKC
FM120400 16003KT 5SM HZ BR FEW004
FM120700 13004KT P6SM VCFG BKN004
FM121100 00000KT 1/2SM FG VV002

Example: see airport list